Custer, WA

2:06 AM PST on December 29, 2014 (GMT -0800)
Friday Harbor | Change Station
CLOSE
Current Station
Airport
Location: Friday Harbor,
Elevation: 108 ft
Nearby Weather Stations
Active Advisory: Wind Advisory

Elev 108 ft 48.52 °N, 123.02 °W | Updated 13 minutes ago

Clear
Clear
39 °F
Feels Like 31 °F
N
14
Wind Variable Wind from North
Gusts 24 mph

Today
High -- | Low -- °F
--% Chance of Precip.
Yesterday
High -- | Low -- °F
Precip. -- in
8:04 AM 4:21 PM
First Quarter, 57% visible
Pressure 30.27 in
Visibility 10.0 miles
Clouds Mostly Cloudy 7000 ft
Overcast 8000 ft
Windchill 31 °F
Dew Point 22 °F
Humidity 50%
Rainfall 0.00 in
Snow Depth Not available.
UV 0 out of 12
Pollen .50 out of 12
Air Quality Not available.
Flu Activity Not available.
METAR KFHR 290953Z AUTO 36012G21KT 10SM BKN070 OVC080 04/M06 A3027 RMK AO2 PK WND 01027/0910 SLP250 T00391056

More Conditions Fewer Conditions

Pressure 30.27 in
Visibility 10.0 miles
Clouds Mostly Cloudy 7000 ft
Overcast 8000 ft
Windchill 31 °F
Dew Point 22 °F
Humidity 50%
Rainfall 0.00 in
Snow Depth Not available.
UV 0 out of 12
Pollen .50 out of 12
Air Quality Not available.
Flu Activity Not available.
METAR KFHR 290953Z AUTO 36012G21KT 10SM BKN070 OVC080 04/M06 A3027 RMK AO2 PK WND 01027/0910 SLP250 T00391056

More Conditions Fewer Conditions

10-Day Weather Forecast

Almanac

Astronomy

Dec. 29, 2014 Rise Set
Actual Time
Civil Twilight
Nautical Twilight
Astronomical Twilight
Moon
Length of Visible Light
Length of Day
Tomorrow will be .
, % of the Moon is Illuminated

Today's Extremes

State Highs State Lows

Community

WunderPhotos

Upload Photos

1,781,563 photos uploaded!

WunderBlogs® & News

Nearby

Air Quality

  Air Quality AQ Index Pollutant
Not available.

Snow Depth

Station Depth Elevation

Earthquake Activity

City Distance Mag. Time & Date
Minimum magnitude displayed is 2.5.

Coastal Water Temperatures

Place Temperature

Nearby Weather Stations